createdAt,value
2018-07-20T00:00:54.631Z,0
2018-07-20T00:01:56.620Z,0
2018-07-20T00:02:58.622Z,0
2018-07-20T00:04:00.946Z,0
2018-07-20T00:05:02.931Z,0
2018-07-20T00:06:05.247Z,0
2018-07-20T00:07:07.237Z,0
2018-07-20T00:08:09.287Z,0
2018-07-20T00:09:12.046Z,0
2018-07-20T00:10:14.045Z,0
2018-07-20T00:11:16.041Z,0
2018-07-20T00:12:18.312Z,0
2018-07-20T00:13:20.319Z,0
2018-07-20T00:14:22.303Z,0
2018-07-20T00:15:24.303Z,0
2018-07-20T00:16:26.302Z,0
2018-07-20T00:17:28.301Z,0
2018-07-20T00:18:30.288Z,0
2018-07-20T00:19:32.282Z,0
2018-07-20T00:20:34.272Z,0
2018-07-20T00:21:36.826Z,0
2018-07-20T00:22:38.829Z,0
2018-07-20T00:23:40.815Z,0
2018-07-20T00:24:42.806Z,0
2018-07-20T00:25:45.094Z,0
2018-07-20T00:26:47.090Z,0
2018-07-20T00:27:49.073Z,0
2018-07-20T00:28:51.072Z,0
2018-07-20T00:29:53.055Z,0
2018-07-20T00:30:55.058Z,0
2018-07-20T00:31:57.056Z,0
2018-07-20T00:32:59.055Z,0
2018-07-20T00:34:01.042Z,0
2018-07-20T00:35:03.390Z,0
2018-07-20T00:36:05.759Z,0
2018-07-20T00:37:07.748Z,0
2018-07-20T00:38:10.136Z,0
2018-07-20T00:39:12.126Z,0
2018-07-20T00:40:14.404Z,0
2018-07-20T00:41:16.396Z,0
2018-07-20T00:42:18.401Z,0
2018-07-20T00:43:20.389Z,0
2018-07-20T00:44:22.385Z,0
2018-07-20T00:45:24.664Z,0
2018-07-20T00:46:26.646Z,0
2018-07-20T00:47:28.646Z,0
2018-07-20T00:48:30.645Z,0
2018-07-20T00:49:32.644Z,0
2018-07-20T00:50:34.641Z,0
2018-07-20T00:51:36.631Z,0
2018-07-20T00:52:38.625Z,0
2018-07-20T00:53:40.614Z,0
2018-07-20T00:54:42.606Z,0
2018-07-20T00:55:44.609Z,0
2018-07-20T00:56:46.594Z,0
2018-07-20T00:57:48.617Z,0
2018-07-20T00:58:50.591Z,0
2018-07-20T00:59:52.574Z,0
2018-07-20T01:00:54.848Z,0
2018-07-20T01:01:56.844Z,0
2018-07-20T01:02:59.108Z,0
2018-07-20T01:04:01.109Z,0
2018-07-20T01:05:03.112Z,0
2018-07-20T01:06:05.112Z,0
2018-07-20T01:07:07.093Z,0
2018-07-20T01:08:09.373Z,0
2018-07-20T01:09:11.361Z,0
2018-07-20T01:10:13.345Z,0
2018-07-20T01:11:15.349Z,0
2018-07-20T01:12:17.334Z,0
2018-07-20T01:13:19.336Z,0
2018-07-20T01:14:21.328Z,0
2018-07-20T01:15:23.711Z,0
2018-07-20T01:16:25.697Z,0
2018-07-20T01:17:27.688Z,0
2018-07-20T01:18:29.684Z,0
2018-07-20T01:19:31.668Z,0
2018-07-20T01:20:33.670Z,0
2018-07-20T01:21:35.955Z,0
2018-07-20T01:22:38.218Z,0
2018-07-20T01:23:40.207Z,0
2018-07-20T01:24:42.482Z,0
2018-07-20T01:25:44.469Z,0
2018-07-20T01:26:46.454Z,0
2018-07-20T01:27:48.441Z,0
2018-07-20T01:28:50.448Z,0
2018-07-20T01:29:52.431Z,0
2018-07-20T01:30:54.425Z,0
2018-07-20T01:31:56.428Z,0
2018-07-20T01:32:58.411Z,0
2018-07-20T01:34:00.406Z,0
2018-07-20T01:35:02.407Z,0
2018-07-20T01:36:04.391Z,0
2018-07-20T01:37:06.388Z,0
2018-07-20T01:38:08.399Z,0
2018-07-20T01:39:10.769Z,0
2018-07-20T01:40:12.757Z,0
2018-07-20T01:41:14.755Z,0
2018-07-20T01:42:17.043Z,0
2018-07-20T01:43:19.031Z,0
2018-07-20T01:44:21.031Z,0
2018-07-20T01:45:23.012Z,0
2018-07-20T01:46:25.292Z,0
2018-07-20T01:47:27.282Z,0
2018-07-20T01:48:29.285Z,0
2018-07-20T01:49:31.553Z,0
2018-07-20T01:50:33.848Z,0
2018-07-20T01:51:35.844Z,0
2018-07-20T01:52:37.826Z,0
2018-07-20T01:53:39.829Z,0
2018-07-20T01:54:41.819Z,0
2018-07-20T01:55:43.804Z,0
2018-07-20T01:56:45.791Z,0
2018-07-20T01:57:47.787Z,0
2018-07-20T01:58:49.782Z,0
2018-07-20T01:59:51.781Z,0
2018-07-20T02:00:53.782Z,0
2018-07-20T02:01:56.042Z,0
2018-07-20T02:02:58.041Z,0
2018-07-20T02:04:00.028Z,0
2018-07-20T02:05:02.031Z,0
2018-07-20T02:06:04.013Z,0
2018-07-20T02:07:06.288Z,0
2018-07-20T02:08:08.290Z,0
2018-07-20T02:09:10.552Z,0
2018-07-20T02:10:13.140Z,0
2018-07-20T02:11:15.141Z,0
2018-07-20T02:12:17.144Z,0
2018-07-20T02:13:19.118Z,0
2018-07-20T02:14:21.114Z,0
2018-07-20T02:15:23.102Z,0
2018-07-20T02:16:25.090Z,0
2018-07-20T02:17:27.091Z,0
2018-07-20T02:18:29.633Z,0
2018-07-20T02:19:31.913Z,0
2018-07-20T02:20:33.903Z,0
2018-07-20T02:21:36.297Z,0
2018-07-20T02:22:38.285Z,0
2018-07-20T02:23:40.279Z,0
2018-07-20T02:24:42.961Z,4
2018-07-20T02:25:45.506Z,4
2018-07-20T02:26:47.511Z,4
2018-07-20T02:27:49.498Z,0
2018-07-20T02:28:51.766Z,4
2018-07-20T02:29:53.754Z,4
2018-07-20T02:30:55.753Z,4
2018-07-20T02:31:58.443Z,4
2018-07-20T02:33:00.437Z,4
2018-07-20T02:34:02.719Z,4
2018-07-20T02:35:04.703Z,8
2018-07-20T02:36:06.705Z,8
2018-07-20T02:37:08.702Z,8
2018-07-20T02:38:10.686Z,8
2018-07-20T02:39:12.695Z,8
2018-07-20T02:40:14.693Z,12
2018-07-20T02:41:16.687Z,16
2018-07-20T02:42:18.974Z,16
2018-07-20T02:43:21.246Z,20
2018-07-20T02:44:23.614Z,20
2018-07-20T02:45:26.296Z,24
2018-07-20T02:46:28.299Z,32
2018-07-20T02:47:30.290Z,32
2018-07-20T02:48:32.290Z,36
2018-07-20T02:49:34.291Z,40
2018-07-20T02:50:36.278Z,44
2018-07-20T02:51:38.855Z,52
2018-07-20T02:52:40.845Z,60
2018-07-20T02:53:43.128Z,68
2018-07-20T02:54:45.113Z,76
2018-07-20T02:55:47.116Z,88
2018-07-20T02:56:49.393Z,100
2018-07-20T02:57:51.962Z,108
2018-07-20T02:58:53.966Z,120
2018-07-20T02:59:55.951Z,132
2018-07-20T03:00:58.335Z,144
2018-07-20T03:02:01.006Z,160
2018-07-20T03:03:03.386Z,176
2018-07-20T03:04:06.044Z,188
2018-07-20T03:05:08.321Z,208
2018-07-20T03:06:10.589Z,224
2018-07-20T03:07:12.575Z,244
2018-07-20T03:08:14.860Z,264
2018-07-20T03:09:17.182Z,288
2018-07-20T03:10:19.170Z,308
2018-07-20T03:11:21.450Z,328
2018-07-20T03:12:23.435Z,356
2018-07-20T03:13:25.726Z,380
2018-07-20T03:14:28.003Z,404
2018-07-20T03:15:29.987Z,432
2018-07-20T03:16:32.262Z,460
2018-07-20T03:17:34.541Z,488
2018-07-20T03:18:36.540Z,520
2018-07-20T03:19:38.537Z,552
2018-07-20T03:20:40.811Z,584
2018-07-20T03:21:42.808Z,620
2018-07-20T03:22:44.811Z,652
2018-07-20T03:23:46.793Z,688
2018-07-20T03:24:48.788Z,728
2018-07-20T03:25:50.777Z,760
2018-07-20T03:26:52.774Z,800
2018-07-20T03:27:55.036Z,840
2018-07-20T03:28:57.334Z,876
2018-07-20T03:29:59.327Z,916
2018-07-20T03:31:01.312Z,956
2018-07-20T03:32:04.182Z,996
2018-07-20T03:33:06.168Z,1036
2018-07-20T03:34:09.153Z,1072
2018-07-20T03:35:11.538Z,1116
2018-07-20T03:36:14.199Z,1160
2018-07-20T03:37:16.186Z,1204
2018-07-20T03:38:18.177Z,1244
2018-07-20T03:39:20.450Z,1284
2018-07-20T03:40:22.437Z,1324
2018-07-20T03:41:24.440Z,1372
2018-07-20T03:42:26.422Z,1416
2018-07-20T03:43:28.688Z,1464
2018-07-20T03:44:30.689Z,1516
2018-07-20T03:45:32.675Z,1568
2018-07-20T03:46:34.668Z,1624
2018-07-20T03:47:36.663Z,1688
2018-07-20T03:48:38.649Z,1744
2018-07-20T03:49:40.642Z,1796
2018-07-20T03:50:42.640Z,1848
2018-07-20T03:51:44.638Z,1908
2018-07-20T03:52:46.905Z,1980
2018-07-20T03:53:49.285Z,2104
2018-07-20T03:54:51.273Z,2288
2018-07-20T03:55:53.560Z,2316
2018-07-20T03:56:55.841Z,2212
2018-07-20T03:57:57.837Z,2164
2018-07-20T03:59:00.102Z,2244
2018-07-20T04:00:02.391Z,2388
2018-07-20T04:01:04.648Z,2560
2018-07-20T04:02:06.849Z,2728
2018-07-20T04:03:08.841Z,2788
2018-07-20T04:04:11.104Z,2684
2018-07-20T04:05:13.769Z,2576
2018-07-20T04:06:15.750Z,2612
2018-07-20T04:07:17.748Z,2748
2018-07-20T04:08:19.742Z,2960
2018-07-20T04:09:21.740Z,3016
2018-07-20T04:10:23.832Z,2988
2018-07-20T04:11:26.000Z,2896
2018-07-20T04:12:28.299Z,2744
2018-07-20T04:13:30.285Z,2688
2018-07-20T04:14:32.291Z,2676
2018-07-20T04:15:34.281Z,2772
2018-07-20T04:16:36.267Z,2968
2018-07-20T04:17:38.269Z,3096
2018-07-20T04:18:40.258Z,3212
2018-07-20T04:19:42.251Z,3212
2018-07-20T04:20:44.532Z,3148
2018-07-20T04:21:46.513Z,3176
2018-07-20T04:22:48.511Z,3204
2018-07-20T04:23:50.789Z,3136
2018-07-20T04:24:52.788Z,3168
2018-07-20T04:25:54.773Z,3196
2018-07-20T04:26:56.778Z,3168
2018-07-20T04:27:59.148Z,3128
2018-07-20T04:29:01.419Z,3256
2018-07-20T04:30:03.424Z,3528
2018-07-20T04:31:05.813Z,3848
2018-07-20T04:32:08.197Z,4132
2018-07-20T04:33:10.184Z,4616
2018-07-20T04:34:12.567Z,4948
2018-07-20T04:35:14.553Z,4928
2018-07-20T04:36:16.563Z,4676
2018-07-20T04:37:18.541Z,4464
2018-07-20T04:38:20.544Z,4444
2018-07-20T04:39:22.528Z,4620
2018-07-20T04:40:24.528Z,4748
2018-07-20T04:41:27.197Z,4748
2018-07-20T04:42:29.475Z,4700
2018-07-20T04:43:31.465Z,4624
2018-07-20T04:44:33.460Z,4688
2018-07-20T04:45:35.447Z,4656
2018-07-20T04:46:37.863Z,4604
2018-07-20T04:47:39.831Z,4448
2018-07-20T04:48:41.819Z,4276
2018-07-20T04:49:43.807Z,4180
2018-07-20T04:50:45.817Z,4228
2018-07-20T04:51:47.812Z,4484
2018-07-20T04:52:49.803Z,4780
2018-07-20T04:53:51.807Z,5008
2018-07-20T04:54:54.073Z,4992
2018-07-20T04:55:56.454Z,4880
2018-07-20T04:56:58.837Z,4776
2018-07-20T04:58:00.837Z,4800
2018-07-20T04:59:03.441Z,4912
2018-07-20T05:00:05.443Z,5096
2018-07-20T05:01:07.430Z,5208
2018-07-20T05:02:09.425Z,5216
2018-07-20T05:03:11.424Z,5204
2018-07-20T05:04:13.408Z,5236
2018-07-20T05:05:15.410Z,5236
2018-07-20T05:06:17.409Z,5240
2018-07-20T05:07:19.414Z,5368
2018-07-20T05:08:21.682Z,5444
2018-07-20T05:09:23.676Z,5640
2018-07-20T05:10:25.959Z,5828
2018-07-20T05:11:27.962Z,5844
2018-07-20T05:12:29.952Z,5864
2018-07-20T05:13:31.941Z,5988
2018-07-20T05:14:33.938Z,6012
2018-07-20T05:15:35.918Z,5744
2018-07-20T05:16:38.199Z,5424
2018-07-20T05:17:40.193Z,5448
2018-07-20T05:18:42.574Z,5440
2018-07-20T05:19:44.570Z,5544
2018-07-20T05:20:46.835Z,5696
2018-07-20T05:21:48.833Z,5740
2018-07-20T05:22:50.835Z,5752
2018-07-20T05:23:53.201Z,5792
2018-07-20T05:24:55.197Z,5836
2018-07-20T05:25:57.854Z,5980
2018-07-20T05:26:59.848Z,6088
2018-07-20T05:28:01.854Z,6156
2018-07-20T05:29:04.227Z,6188
2018-07-20T05:30:06.224Z,6196
2018-07-20T05:31:08.216Z,6164
2018-07-20T05:32:10.222Z,6128
2018-07-20T05:33:12.495Z,6132
2018-07-20T05:34:14.501Z,6200
2018-07-20T05:35:16.501Z,6232
2018-07-20T05:36:18.488Z,6248
2018-07-20T05:37:20.495Z,6268
2018-07-20T05:38:22.770Z,6332
2018-07-20T05:39:25.070Z,6392
2018-07-20T05:40:27.056Z,6488
2018-07-20T05:41:29.060Z,6704
2018-07-20T05:42:31.063Z,7164
2018-07-20T05:43:33.335Z,7676
2018-07-20T05:44:36.008Z,8416
2018-07-20T05:45:38.276Z,8716
2018-07-20T05:46:40.281Z,7916
2018-07-20T05:47:42.662Z,7116
2018-07-20T05:48:44.664Z,6640
2018-07-20T05:49:46.652Z,6368
2018-07-20T05:50:48.935Z,6296
2018-07-20T05:51:51.228Z,6168
2018-07-20T05:52:53.615Z,6000
2018-07-20T05:53:55.898Z,6068
2018-07-20T05:54:57.900Z,6372
2018-07-20T05:55:59.917Z,6472
2018-07-20T05:57:02.185Z,6452
2018-07-20T05:58:04.187Z,6416
2018-07-20T05:59:06.469Z,6464
2018-07-20T06:00:08.466Z,6684
2018-07-20T06:01:10.475Z,6916
2018-07-20T06:02:12.751Z,7168
2018-07-20T06:03:14.740Z,7516
2018-07-20T06:04:16.729Z,8280
2018-07-20T06:05:18.738Z,9888
2018-07-20T06:06:21.030Z,12168
2018-07-20T06:07:23.032Z,13600
2018-07-20T06:08:25.037Z,13976
2018-07-20T06:09:27.024Z,13752
2018-07-20T06:10:29.033Z,12956
2018-07-20T06:11:31.033Z,11036
2018-07-20T06:12:33.033Z,9584
2018-07-20T06:13:35.405Z,9292
2018-07-20T06:14:37.793Z,10032
2018-07-20T06:15:39.790Z,10720
2018-07-20T06:16:41.784Z,11168
2018-07-20T06:17:44.177Z,11168
2018-07-20T06:18:46.173Z,10980
2018-07-20T06:19:48.172Z,10932
2018-07-20T06:20:50.179Z,10756
2018-07-20T06:21:52.186Z,11004
2018-07-20T06:22:54.770Z,12196
2018-07-20T06:23:56.782Z,13128
2018-07-20T06:24:58.769Z,13140
2018-07-20T06:26:00.765Z,13660
2018-07-20T06:27:03.160Z,14592
2018-07-20T06:28:05.150Z,14240
2018-07-20T06:29:07.154Z,12756
2018-07-20T06:30:09.531Z,11428
2018-07-20T06:31:11.534Z,10676
2018-07-20T06:32:13.813Z,10764
2018-07-20T06:33:15.806Z,11232
2018-07-20T06:34:18.098Z,11612
2018-07-20T06:35:20.095Z,11076
2018-07-20T06:36:22.091Z,10920
2018-07-20T06:37:24.089Z,11204
2018-07-20T06:38:26.100Z,11720
2018-07-20T06:39:28.377Z,11692
2018-07-20T06:40:30.382Z,10760
2018-07-20T06:41:32.388Z,10000
2018-07-20T06:42:34.375Z,9680
2018-07-20T06:43:36.382Z,9500
2018-07-20T06:44:38.663Z,9472
2018-07-20T06:45:40.668Z,9512
2018-07-20T06:46:42.655Z,9616
2018-07-20T06:47:44.664Z,9736
2018-07-20T06:48:46.662Z,9944
2018-07-20T06:49:48.712Z,10092
2018-07-20T06:50:51.074Z,10252
2018-07-20T06:51:53.345Z,10448
2018-07-20T06:52:55.353Z,10512
2018-07-20T06:53:57.358Z,10676
2018-07-20T06:54:59.363Z,10872
2018-07-20T06:56:01.364Z,11244
2018-07-20T06:57:03.747Z,11340
2018-07-20T06:58:06.042Z,11524
2018-07-20T06:59:08.034Z,11748
2018-07-20T07:00:10.427Z,11728
2018-07-20T07:01:12.421Z,11556
2018-07-20T07:02:14.418Z,11668
2018-07-20T07:03:16.430Z,11980
2018-07-20T07:04:18.426Z,12660
2018-07-20T07:05:20.427Z,13376
2018-07-20T07:06:22.426Z,13824
2018-07-20T07:07:24.719Z,14140
2018-07-20T07:08:26.718Z,14940
2018-07-20T07:09:28.732Z,15244
2018-07-20T07:10:31.215Z,14376
2018-07-20T07:11:33.609Z,12868
2018-07-20T07:12:35.605Z,11992
2018-07-20T07:13:37.612Z,11904
2018-07-20T07:14:39.620Z,12204
2018-07-20T07:15:41.609Z,12732
2018-07-20T07:16:43.626Z,13096
2018-07-20T07:17:45.618Z,13348
2018-07-20T07:18:47.626Z,13424
2018-07-20T07:19:49.618Z,14060
2018-07-20T07:20:51.633Z,14768
2018-07-20T07:21:53.629Z,14728
2018-07-20T07:22:55.625Z,14256
2018-07-20T07:23:57.638Z,13800
2018-07-20T07:24:59.630Z,13484
2018-07-20T07:26:01.740Z,13248
2018-07-20T07:27:04.059Z,12904
2018-07-20T07:28:06.065Z,12580
2018-07-20T07:29:08.082Z,12460
2018-07-20T07:30:10.071Z,12576
2018-07-20T07:31:12.345Z,12740
2018-07-20T07:32:14.726Z,12692
2018-07-20T07:33:16.737Z,12656
2018-07-20T07:34:19.405Z,12816
2018-07-20T07:35:21.403Z,12920
2018-07-20T07:36:23.417Z,12900
2018-07-20T07:37:25.414Z,12708
2018-07-20T07:38:27.418Z,12912
2018-07-20T07:39:29.709Z,13016
2018-07-20T07:40:31.701Z,13440
2018-07-20T07:41:33.709Z,14008
2018-07-20T07:42:35.717Z,14500
2018-07-20T07:43:37.725Z,14740
2018-07-20T07:44:39.721Z,14792
2018-07-20T07:45:41.730Z,14800
2018-07-20T07:46:43.724Z,14844
2018-07-20T07:47:46.106Z,14800
2018-07-20T07:48:48.120Z,15032
2018-07-20T07:49:50.112Z,15732
2018-07-20T07:50:52.122Z,16180
2018-07-20T07:51:54.508Z,16504
2018-07-20T07:52:56.519Z,16688
2018-07-20T07:53:58.518Z,16324
2018-07-20T07:55:00.524Z,15704
2018-07-20T07:56:03.504Z,15144
2018-07-20T07:57:05.496Z,15052
2018-07-20T07:58:07.511Z,15412
2018-07-20T07:59:09.508Z,15872
2018-07-20T08:00:11.506Z,16520
2018-07-20T08:01:13.503Z,17268
2018-07-20T08:02:15.513Z,17408
2018-07-20T08:03:17.796Z,17036
2018-07-20T08:04:19.813Z,16608
2018-07-20T08:05:21.819Z,16348
2018-07-20T08:06:23.815Z,16156
2018-07-20T08:07:26.212Z,16024
2018-07-20T08:08:28.222Z,16292
2018-07-20T08:09:30.218Z,16816
2018-07-20T08:10:32.226Z,17100
2018-07-20T08:11:34.616Z,17016
2018-07-20T08:12:36.618Z,16848
2018-07-20T08:13:38.632Z,16996
2018-07-20T08:14:40.929Z,17456
2018-07-20T08:15:43.221Z,17892
2018-07-20T08:16:45.542Z,18976
2018-07-20T08:17:47.555Z,20256
2018-07-20T08:18:49.556Z,20640
2018-07-20T08:19:51.565Z,20288
2018-07-20T08:20:53.574Z,19808
2018-07-20T08:21:55.583Z,19180
2018-07-20T08:22:57.671Z,18868
2018-07-20T08:23:59.595Z,18380
2018-07-20T08:25:01.596Z,18064
2018-07-20T08:26:03.609Z,18088
2018-07-20T08:27:05.607Z,18544
2018-07-20T08:28:07.614Z,19188
2018-07-20T08:29:09.623Z,19828
2018-07-20T08:30:11.618Z,21504
2018-07-20T08:31:13.637Z,30944
2018-07-20T08:32:15.644Z,30912
2018-07-20T08:33:17.642Z,33696
2018-07-20T08:34:19.644Z,34848
2018-07-20T08:35:21.652Z,33984
2018-07-20T08:36:24.041Z,31904
2018-07-20T08:37:26.053Z,32224
2018-07-20T08:38:28.060Z,32896
2018-07-20T08:39:30.333Z,34336
2018-07-20T08:40:32.341Z,34784
2018-07-20T08:41:34.738Z,36320
2018-07-20T08:42:37.028Z,31552
2018-07-20T08:43:39.039Z,44256
2018-07-20T08:44:41.043Z,74048
2018-07-20T08:45:43.041Z,82144
2018-07-20T08:46:45.055Z,78720
2018-07-20T08:47:47.055Z,77824
2018-07-20T08:48:49.060Z,76096
2018-07-20T08:49:51.339Z,79936
2018-07-20T08:50:53.352Z,78048
2018-07-20T08:51:55.693Z,78144
2018-07-20T08:52:57.647Z,74624
2018-07-20T08:53:59.670Z,76288
2018-07-20T08:55:01.951Z,77824
2018-07-20T08:56:03.967Z,78912
2018-07-20T08:57:05.971Z,80160
2018-07-20T08:58:07.983Z,82912
2018-07-20T08:59:09.980Z,79552
2018-07-20T09:00:11.990Z,75872
2018-07-20T09:01:13.995Z,80096
2018-07-20T09:02:16.288Z,84576
2018-07-20T09:03:18.285Z,83840
2018-07-20T09:04:20.302Z,82016
2018-07-20T09:05:22.688Z,84160
2018-07-20T09:06:24.695Z,84672
2018-07-20T09:07:26.701Z,82912
2018-07-20T09:08:28.713Z,84512
2018-07-20T09:09:30.717Z,78976
2018-07-20T09:10:32.726Z,81312
2018-07-20T09:11:34.738Z,79648
2018-07-20T09:12:36.743Z,81888
2018-07-20T09:13:39.148Z,79392
2018-07-20T09:14:41.046Z,77696
2018-07-20T09:15:43.040Z,76224
2018-07-20T09:16:45.055Z,75232
2018-07-20T09:17:47.062Z,77632
2018-07-20T09:18:49.066Z,78560
2018-07-20T09:19:51.081Z,78144
2018-07-20T09:20:53.134Z,81760
2018-07-20T09:21:55.465Z,85440
2018-07-20T09:22:57.854Z,88192
2018-07-20T09:23:59.867Z,88800
2018-07-20T09:25:01.869Z,92704
2018-07-20T09:26:04.204Z,94336
2018-07-20T09:27:06.177Z,91168
2018-07-20T09:28:08.173Z,89888
2018-07-20T09:29:10.190Z,93984
2018-07-20T09:30:12.476Z,95296
2018-07-20T09:31:14.498Z,90080
2018-07-20T09:32:16.876Z,93824
2018-07-20T09:33:18.889Z,99968
2018-07-20T09:34:20.894Z,100800
2018-07-20T09:35:22.896Z,100544
2018-07-20T09:36:24.913Z,79136
2018-07-20T09:37:26.916Z,98112
2018-07-20T09:38:28.919Z,96064
2018-07-20T09:39:30.928Z,93248
2018-07-20T09:40:32.926Z,93024
2018-07-20T09:41:34.939Z,98528
2018-07-20T09:42:36.948Z,102048
2018-07-20T09:43:38.965Z,106944
2018-07-20T09:44:41.260Z,106208
2018-07-20T09:45:43.258Z,110272
2018-07-20T09:46:45.557Z,108768
2018-07-20T09:47:47.573Z,102880
2018-07-20T09:48:49.593Z,97120
2018-07-20T09:49:51.596Z,92480
2018-07-20T09:50:53.607Z,91488
2018-07-20T09:51:55.616Z,94976
2018-07-20T09:52:57.642Z,97344
2018-07-20T09:53:59.645Z,99008
2018-07-20T09:55:01.653Z,103136
2018-07-20T09:56:04.041Z,102144
2018-07-20T09:57:06.116Z,102464
2018-07-20T09:58:08.069Z,104192
2018-07-20T09:59:10.089Z,104416
2018-07-20T10:00:12.100Z,95840
2018-07-20T10:01:14.100Z,92672
2018-07-20T10:02:16.124Z,97248
2018-07-20T10:03:18.132Z,106112
2018-07-20T10:04:20.449Z,106144
2018-07-20T10:05:22.450Z,110656
2018-07-20T10:06:24.466Z,112704
2018-07-20T10:07:26.476Z,107712
2018-07-20T10:08:28.495Z,106144
2018-07-20T10:09:30.518Z,107200
2018-07-20T10:10:32.522Z,108736
2018-07-20T10:11:34.549Z,106112
2018-07-20T10:12:36.560Z,104704
2018-07-20T10:13:38.574Z,113632
2018-07-20T10:14:40.580Z,119200
2018-07-20T10:15:42.595Z,124864
2018-07-20T10:16:44.987Z,127872
2018-07-20T10:17:46.994Z,130624
2018-07-20T10:18:49.056Z,125056
2018-07-20T10:19:51.329Z,129568
2018-07-20T10:20:53.928Z,124192
2018-07-20T10:21:55.951Z,121440
2018-07-20T10:22:57.961Z,114848
2018-07-20T10:23:59.981Z,113408
2018-07-20T10:25:01.996Z,107296
2018-07-20T10:26:04.001Z,102368
2018-07-20T10:27:06.020Z,104352
2018-07-20T10:28:08.314Z,104736
2018-07-20T10:29:10.337Z,104512
2018-07-20T10:30:12.342Z,107808
2018-07-20T10:31:14.358Z,115008
2018-07-20T10:32:16.371Z,115264
2018-07-20T10:33:18.661Z,113152
2018-07-20T10:34:20.687Z,113984
2018-07-20T10:35:22.687Z,115424
2018-07-20T10:36:24.704Z,112864
2018-07-20T10:37:26.714Z,111392
2018-07-20T10:38:28.738Z,119232
2018-07-20T10:39:31.414Z,115328
2018-07-20T10:40:33.434Z,112576
2018-07-20T10:41:35.739Z,115168
2018-07-20T10:42:37.746Z,112256
2018-07-20T10:43:39.771Z,101376
2018-07-20T10:44:42.074Z,99808
2018-07-20T10:45:44.080Z,99680
2018-07-20T10:46:46.096Z,96480
2018-07-20T10:47:48.114Z,93792
2018-07-20T10:48:50.417Z,102272
2018-07-20T10:49:52.824Z,103040
2018-07-20T10:50:54.846Z,101536
2018-07-20T10:51:56.851Z,100416
2018-07-20T10:52:58.877Z,99104
2018-07-20T10:54:01.164Z,98144
2018-07-20T10:55:03.578Z,101504
2018-07-20T10:56:05.587Z,104800
2018-07-20T10:57:07.601Z,105248
2018-07-20T10:58:09.622Z,104608
2018-07-20T10:59:11.626Z,101472
2018-07-20T11:00:13.647Z,103776
2018-07-20T11:01:15.945Z,110752
2018-07-20T11:02:17.969Z,111840
2018-07-20T11:03:20.017Z,106944
2018-07-20T11:04:22.036Z,103808
2018-07-20T11:05:24.049Z,102144
2018-07-20T11:06:26.061Z,104288
2018-07-20T11:07:28.370Z,106592
2018-07-20T11:08:30.378Z,118688
2018-07-20T11:09:32.680Z,115008
2018-07-20T11:10:34.691Z,116320
2018-07-20T11:11:36.718Z,112800
2018-07-20T11:12:38.728Z,112000
2018-07-20T11:13:41.135Z,113824
2018-07-20T11:14:43.152Z,112320
2018-07-20T11:15:45.160Z,111776
2018-07-20T11:16:47.184Z,113152
2018-07-20T11:17:49.196Z,119008
2018-07-20T11:18:51.208Z,118592
2018-07-20T11:19:53.216Z,116544
2018-07-20T11:20:55.239Z,122016
2018-07-20T11:21:57.253Z,130176
2018-07-20T11:22:59.278Z,130784
2018-07-20T11:24:01.308Z,125888
2018-07-20T11:25:03.602Z,125760
2018-07-20T11:26:05.625Z,123584
2018-07-20T11:27:07.649Z,121376
2018-07-20T11:28:09.646Z,116928
2018-07-20T11:29:11.668Z,111520
2018-07-20T11:30:13.683Z,110560
2018-07-20T11:31:15.983Z,110272
2018-07-20T11:32:17.989Z,111264
2018-07-20T11:33:20.009Z,119520
2018-07-20T11:34:22.030Z,125344
2018-07-20T11:35:24.050Z,117984
2018-07-20T11:36:26.054Z,112768
2018-07-20T11:37:28.080Z,113152
2018-07-20T11:38:30.095Z,116992
2018-07-20T11:39:32.488Z,108832
2018-07-20T11:40:34.521Z,110528
2018-07-20T11:41:36.804Z,113632
2018-07-20T11:42:38.830Z,122304
2018-07-20T11:43:40.835Z,119680
2018-07-20T11:44:42.863Z,117408
2018-07-20T11:45:44.874Z,116128
2018-07-20T11:46:46.889Z,110720
2018-07-20T11:47:48.911Z,104288
2018-07-20T11:48:50.915Z,108768
2018-07-20T11:49:52.946Z,107872
2018-07-20T11:50:54.959Z,109792
2018-07-20T11:51:56.970Z,110016
2018-07-20T11:52:59.265Z,111072
2018-07-20T11:54:01.287Z,107840
2018-07-20T11:55:03.309Z,106080
2018-07-20T11:56:05.336Z,100960
2018-07-20T11:57:07.352Z,96352
2018-07-20T11:58:09.917Z,94464
2018-07-20T11:59:11.941Z,101248
2018-07-20T12:00:13.963Z,98752
2018-07-20T12:01:16.297Z,111232
2018-07-20T12:02:18.625Z,106720
2018-07-20T12:03:21.024Z,96832
2018-07-20T12:04:23.037Z,111488
2018-07-20T12:05:25.063Z,116736
2018-07-20T12:06:27.074Z,118080
2018-07-20T12:07:29.086Z,114400
2018-07-20T12:08:31.096Z,110240
2018-07-20T12:09:33.106Z,114144
2018-07-20T12:10:35.511Z,116000
2018-07-20T12:11:37.523Z,118784
2018-07-20T12:12:39.534Z,113728
2018-07-20T12:13:41.563Z,96032
2018-07-20T12:14:43.575Z,74176
2018-07-20T12:15:45.597Z,66784
2018-07-20T12:16:47.609Z,53984
2018-07-20T12:17:49.653Z,60128
2018-07-20T12:18:52.247Z,64640
2018-07-20T12:19:54.248Z,76128
2018-07-20T12:20:56.545Z,68544
2018-07-20T12:21:58.552Z,68768
2018-07-20T12:23:00.876Z,74976
2018-07-20T12:24:02.887Z,81696
2018-07-20T12:25:04.902Z,63328
2018-07-20T12:26:07.584Z,57920
2018-07-20T12:27:09.890Z,101152
2018-07-20T12:28:11.967Z,102144
2018-07-20T12:29:14.277Z,108864
2018-07-20T12:30:16.298Z,119392
2018-07-20T12:31:18.302Z,115968
2018-07-20T12:32:20.606Z,107072
2018-07-20T12:33:22.623Z,98240
2018-07-20T12:34:24.628Z,98880
2018-07-20T12:35:26.946Z,107680
2018-07-20T12:36:28.963Z,112704
2018-07-20T12:37:30.973Z,105504
2018-07-20T12:38:32.999Z,99488
2018-07-20T12:39:35.013Z,98944
2018-07-20T12:40:37.022Z,99840
2018-07-20T12:41:39.311Z,101248
2018-07-20T12:42:41.431Z,87008
2018-07-20T12:43:43.350Z,98400
2018-07-20T12:44:45.373Z,103712
2018-07-20T12:45:47.677Z,107712
2018-07-20T12:46:49.682Z,108160
2018-07-20T12:47:51.707Z,109856
2018-07-20T12:48:53.721Z,98272
2018-07-20T12:49:55.741Z,101280
2018-07-20T12:50:57.756Z,93760
2018-07-20T12:51:59.771Z,94464
2018-07-20T12:53:02.066Z,97376
2018-07-20T12:54:04.761Z,99328
2018-07-20T12:55:06.787Z,103360
2018-07-20T12:56:08.794Z,100832
2018-07-20T12:57:11.097Z,98016
2018-07-20T12:58:13.117Z,94240
2018-07-20T12:59:15.143Z,96480
2018-07-20T13:00:17.151Z,99648
2018-07-20T13:01:19.165Z,101248
2018-07-20T13:02:21.178Z,102400
2018-07-20T13:03:23.189Z,100256
2018-07-20T13:04:25.245Z,96128
2018-07-20T13:05:27.611Z,98688
2018-07-20T13:06:29.622Z,107648
2018-07-20T13:07:31.650Z,112064
2018-07-20T13:08:33.661Z,108448
2018-07-20T13:09:35.675Z,98240
2018-07-20T13:10:37.698Z,95488
2018-07-20T13:11:39.708Z,101376
2018-07-20T13:12:41.729Z,99328
2018-07-20T13:13:43.754Z,93824
2018-07-20T13:14:45.778Z,89952
2018-07-20T13:15:47.783Z,91392
2018-07-20T13:16:49.804Z,91840
2018-07-20T13:17:51.879Z,89120
2018-07-20T13:18:54.218Z,89792
2018-07-20T13:19:56.528Z,88864
2018-07-20T13:20:58.536Z,85856
2018-07-20T13:22:00.581Z,87520
2018-07-20T13:23:02.594Z,89856
2018-07-20T13:24:04.644Z,93024
2018-07-20T13:25:06.940Z,88384
2018-07-20T13:26:09.348Z,87776
2018-07-20T13:27:11.361Z,92608
2018-07-20T13:28:13.737Z,92736
2018-07-20T13:29:15.707Z,92416
2018-07-20T13:30:17.732Z,92544
2018-07-20T13:31:19.755Z,87328
2018-07-20T13:32:21.777Z,88672
2018-07-20T13:33:23.790Z,87040
2018-07-20T13:34:26.680Z,84416
2018-07-20T13:35:28.987Z,83136
2018-07-20T13:36:31.402Z,86944
2018-07-20T13:37:33.433Z,89184
2018-07-20T13:38:35.730Z,89248
2018-07-20T13:39:37.760Z,92448
2018-07-20T13:40:40.109Z,99200
2018-07-20T13:41:42.153Z,103136
2018-07-20T13:42:44.264Z,94560
2018-07-20T13:43:46.328Z,87904
2018-07-20T13:44:48.622Z,91104